createdAt,value
2023-03-22T00:00:30.492Z,98907.00
2023-03-22T00:03:17.398Z,98903.47
2023-03-22T00:06:03.940Z,98906.06
2023-03-22T00:08:51.754Z,98917.06
2023-03-22T00:11:38.090Z,98917.81
2023-03-22T00:14:24.391Z,98908.34
2023-03-22T00:17:11.165Z,98920.25
2023-03-22T00:19:58.434Z,98902.28
2023-03-22T00:22:44.924Z,98914.22
2023-03-22T00:25:31.361Z,98906.38
2023-03-22T00:28:18.327Z,98904.56
2023-03-22T00:31:05.471Z,98901.19
2023-03-22T00:33:52.115Z,98901.88
2023-03-22T00:36:38.495Z,98876.88
2023-03-22T00:39:25.116Z,98879.56
2023-03-22T00:42:11.810Z,98877.47
2023-03-22T00:44:59.743Z,98879.00
2023-03-22T00:47:46.240Z,98878.91
2023-03-22T00:50:32.684Z,98852.81
2023-03-22T00:53:19.274Z,98875.91
2023-03-22T00:56:06.831Z,98864.06
2023-03-22T00:59:04.076Z,98872.56
2023-03-22T01:01:50.698Z,98876.69
2023-03-22T01:04:37.252Z,98857.88
2023-03-22T01:07:24.970Z,98864.91
2023-03-22T01:10:12.677Z,98863.97
2023-03-22T01:12:59.181Z,98853.72
2023-03-22T01:15:47.832Z,98851.97
2023-03-22T01:18:35.811Z,98851.16
2023-03-22T01:21:22.280Z,98841.81
2023-03-22T01:24:09.450Z,98844.28
2023-03-22T01:26:56.591Z,98840.78
2023-03-22T01:29:42.904Z,98829.50
2023-03-22T01:32:29.600Z,98840.53
2023-03-22T01:35:16.473Z,98836.22
2023-03-22T01:38:02.817Z,98843.72
2023-03-22T01:40:49.472Z,98846.28
2023-03-22T01:43:36.737Z,98840.06
2023-03-22T01:46:23.527Z,98839.94
2023-03-22T01:49:23.477Z,98846.72
2023-03-22T01:52:14.754Z,98832.91
2023-03-22T01:55:22.632Z,98834.56
2023-03-22T01:58:18.267Z,98836.31
2023-03-22T02:01:16.198Z,98836.28
2023-03-22T02:04:15.507Z,98827.66
2023-03-22T02:07:10.304Z,98817.19
2023-03-22T02:09:59.302Z,98829.16
2023-03-22T02:13:19.376Z,98819.75
2023-03-22T02:16:44.317Z,98822.28
2023-03-22T02:20:15.484Z,98827.44
2023-03-22T02:23:05.880Z,98813.72
2023-03-22T02:26:10.519Z,98813.84
2023-03-22T02:29:17.784Z,98817.13
2023-03-22T02:32:26.236Z,98811.88
2023-03-22T02:35:35.027Z,98808.72
2023-03-22T02:38:42.433Z,98805.16
2023-03-22T02:41:54.748Z,98800.09
2023-03-22T02:44:56.555Z,98796.50
2023-03-22T02:47:49.857Z,98804.31
2023-03-22T02:50:51.339Z,98805.03
2023-03-22T02:53:50.487Z,98801.47
2023-03-22T02:56:49.915Z,98811.72
2023-03-22T02:59:40.933Z,98815.22
2023-03-22T03:02:29.413Z,98817.31
2023-03-22T03:05:18.743Z,98815.41
2023-03-22T03:08:07.196Z,98814.44
2023-03-22T03:10:56.733Z,98814.34
2023-03-22T03:13:43.106Z,98813.47
2023-03-22T03:16:34.675Z,98820.34
2023-03-22T03:19:34.151Z,98818.69
2023-03-22T03:22:41.596Z,98819.75
2023-03-22T03:25:46.919Z,98802.50
2023-03-22T03:28:44.902Z,98815.84
2023-03-22T03:31:41.397Z,98816.59
2023-03-22T03:34:42.113Z,98811.28
2023-03-22T03:37:43.833Z,98817.00
2023-03-22T03:40:33.658Z,98807.53
2023-03-22T03:43:21.864Z,98809.03
2023-03-22T03:46:10.304Z,98808.94
2023-03-22T03:48:58.135Z,98810.63
2023-03-22T03:51:48.109Z,98812.19
2023-03-22T03:54:37.583Z,98811.25
2023-03-22T03:57:27.221Z,98786.03
2023-03-22T04:00:14.967Z,98796.31
2023-03-22T04:03:14.984Z,98803.56
2023-03-22T04:06:34.652Z,98778.53
2023-03-22T04:09:29.971Z,98792.94
2023-03-22T04:12:22.356Z,98797.97
2023-03-22T04:15:28.886Z,98802.06
2023-03-22T04:18:19.613Z,98799.50
2023-03-22T04:21:06.719Z,98791.81
2023-03-22T04:24:03.720Z,98792.50
2023-03-22T04:26:55.476Z,98791.66
2023-03-22T04:29:50.749Z,98780.41
2023-03-22T04:32:56.344Z,98782.28
2023-03-22T04:35:56.860Z,98784.84
2023-03-22T04:38:49.582Z,98778.84
2023-03-22T04:41:40.765Z,98773.56
2023-03-22T04:44:27.290Z,98778.69
2023-03-22T04:47:14.216Z,98775.13
2023-03-22T04:50:00.767Z,98770.09
2023-03-22T04:52:51.129Z,98767.59
2023-03-22T04:55:37.568Z,98771.53
2023-03-22T04:58:27.289Z,98774.94
2023-03-22T05:01:15.425Z,98770.66
2023-03-22T05:04:04.186Z,98764.53
2023-03-22T05:06:50.456Z,98764.50
2023-03-22T05:09:43.215Z,98737.94
2023-03-22T05:12:29.821Z,98761.31
2023-03-22T05:15:32.857Z,98751.09
2023-03-22T05:18:26.333Z,98757.97
2023-03-22T05:21:17.896Z,98742.47
2023-03-22T05:24:05.108Z,98751.09
2023-03-22T05:26:53.836Z,98747.84
2023-03-22T05:29:46.761Z,98758.47
2023-03-22T05:32:45.869Z,98763.84
2023-03-22T05:35:34.211Z,98758.47
2023-03-22T05:38:25.400Z,98763.75
2023-03-22T05:41:17.679Z,98767.19
2023-03-22T05:44:04.898Z,98768.94
2023-03-22T05:46:54.091Z,98771.69
2023-03-22T05:49:49.408Z,98774.34
2023-03-22T05:52:36.307Z,98770.25
2023-03-22T05:55:42.817Z,98772.25
2023-03-22T05:58:31.634Z,98777.69
2023-03-22T06:01:20.399Z,98759.69
2023-03-22T06:04:06.847Z,98789.84
2023-03-22T06:07:16.177Z,98767.75
2023-03-22T06:10:09.512Z,98791.44
2023-03-22T06:12:56.094Z,98788.16
2023-03-22T06:15:47.839Z,98796.91
2023-03-22T06:18:40.725Z,98784.34
2023-03-22T06:21:31.019Z,98789.69
2023-03-22T06:24:17.619Z,98789.03
2023-03-22T06:27:05.484Z,98788.31
2023-03-22T06:29:54.668Z,98785.94
2023-03-22T06:32:44.395Z,98794.03
2023-03-22T06:35:34.721Z,98802.00
2023-03-22T06:38:24.147Z,98795.25
2023-03-22T06:41:10.578Z,98795.41
2023-03-22T06:43:56.974Z,98791.41
2023-03-22T06:47:06.747Z,98797.66
2023-03-22T06:50:12.221Z,98798.81
2023-03-22T06:53:30.595Z,98798.19
2023-03-22T06:56:17.221Z,98793.25
2023-03-22T06:59:09.021Z,98791.75
2023-03-22T07:01:55.359Z,98793.59
2023-03-22T07:04:42.125Z,98795.44
2023-03-22T07:07:28.793Z,98787.03
2023-03-22T07:10:15.681Z,98782.00
2023-03-22T07:13:03.191Z,98768.31
2023-03-22T07:15:56.076Z,98762.38
2023-03-22T07:18:54.433Z,98773.63
2023-03-22T07:21:40.950Z,98775.38
2023-03-22T07:24:30.753Z,98789.19
2023-03-22T07:27:18.263Z,98780.56
2023-03-22T07:30:07.648Z,98784.03
2023-03-22T07:32:58.563Z,98792.63
2023-03-22T07:35:45.449Z,98783.97
2023-03-22T07:38:32.248Z,98787.34
2023-03-22T07:41:19.047Z,98788.09
2023-03-22T07:44:18.038Z,98791.47
2023-03-22T07:47:40.764Z,98781.06
2023-03-22T07:50:56.900Z,98778.25
2023-03-22T07:53:45.673Z,98771.16
2023-03-22T07:56:32.661Z,98775.31
2023-03-22T07:59:19.238Z,98776.88
2023-03-22T08:02:06.634Z,98770.75
2023-03-22T08:04:58.721Z,98782.59
2023-03-22T08:07:51.501Z,98788.56
2023-03-22T08:10:38.553Z,98779.78
2023-03-22T08:13:26.028Z,98758.94
2023-03-22T08:16:13.092Z,98718.34
2023-03-22T08:19:00.100Z,98753.25
2023-03-22T08:21:48.355Z,98776.16
2023-03-22T08:24:50.009Z,98773.19
2023-03-22T08:27:45.094Z,98768.53
2023-03-22T08:30:31.646Z,98776.78
2023-03-22T08:33:21.156Z,98776.63
2023-03-22T08:36:09.781Z,98775.78
2023-03-22T08:39:04.677Z,98771.94
2023-03-22T08:42:09.756Z,98771.81
2023-03-22T08:44:56.623Z,98751.78
2023-03-22T08:47:46.392Z,98765.47
2023-03-22T08:50:35.023Z,98760.81
2023-03-22T08:53:35.506Z,98760.38
2023-03-22T08:56:43.646Z,98754.84
2023-03-22T08:59:52.260Z,98753.47
2023-03-22T09:03:05.367Z,98751.56
2023-03-22T09:05:52.224Z,98744.69
2023-03-22T09:08:38.950Z,98740.25
2023-03-22T09:11:31.521Z,98745.22
2023-03-22T09:14:18.156Z,98750.25
2023-03-22T09:17:06.246Z,98743.38
2023-03-22T09:20:02.858Z,98742.88
2023-03-22T09:22:53.091Z,98734.59
2023-03-22T09:25:43.329Z,98737.19
2023-03-22T09:28:30.535Z,98732.13
2023-03-22T09:31:20.538Z,98737.34
2023-03-22T09:34:12.663Z,98732.38
2023-03-22T09:37:02.440Z,98726.06
2023-03-22T09:39:57.791Z,98725.13
2023-03-22T09:42:51.826Z,98717.16
2023-03-22T09:45:43.726Z,98710.59
2023-03-22T09:48:42.473Z,98711.41
2023-03-22T09:51:43.686Z,98709.78
2023-03-22T09:54:34.605Z,98709.41
2023-03-22T09:57:41.168Z,98705.44
2023-03-22T10:00:51.404Z,98705.59
2023-03-22T10:04:10.161Z,98704.28
2023-03-22T10:07:44.460Z,98707.44
2023-03-22T10:10:31.153Z,98691.81
2023-03-22T10:13:27.121Z,98697.88
2023-03-22T10:16:25.696Z,98703.19
2023-03-22T10:19:28.076Z,98683.94
2023-03-22T10:22:17.315Z,98682.31
2023-03-22T10:25:06.759Z,98683.41
2023-03-22T10:27:53.242Z,98665.44
2023-03-22T10:30:41.506Z,98680.78
2023-03-22T10:33:37.604Z,98676.59
2023-03-22T10:36:31.232Z,98672.25
2023-03-22T10:39:40.793Z,98675.78
2023-03-22T10:42:30.396Z,98674.09
2023-03-22T10:45:17.222Z,98660.50
2023-03-22T10:48:14.388Z,98665.66
2023-03-22T10:51:01.477Z,98662.13
2023-03-22T10:53:53.004Z,98651.66
2023-03-22T10:56:39.290Z,98656.66
2023-03-22T10:59:49.008Z,98658.84
2023-03-22T11:02:35.699Z,98643.81
2023-03-22T11:05:25.834Z,98650.97
2023-03-22T11:08:15.156Z,98648.22
2023-03-22T11:11:07.634Z,98643.19
2023-03-22T11:14:00.185Z,98646.63
2023-03-22T11:16:56.660Z,98646.84
2023-03-22T11:20:01.784Z,98636.31
2023-03-22T11:22:50.530Z,98630.78
2023-03-22T11:25:44.049Z,98631.06
2023-03-22T11:28:46.469Z,98633.31
2023-03-22T11:31:58.095Z,98628.53
2023-03-22T11:34:46.330Z,98626.41
2023-03-22T11:37:32.633Z,98623.31
2023-03-22T11:40:20.952Z,98625.16
2023-03-22T11:43:10.553Z,98620.41
2023-03-22T11:45:58.900Z,98609.13
2023-03-22T11:48:47.263Z,98562.59
2023-03-22T11:51:40.941Z,98610.00
2023-03-22T11:54:31.852Z,98611.22
2023-03-22T11:57:24.264Z,98610.97
2023-03-22T12:00:15.079Z,98600.34
2023-03-22T12:03:05.908Z,98597.78
2023-03-22T12:05:53.003Z,98597.34
2023-03-22T12:09:14.118Z,98591.81
2023-03-22T12:12:03.427Z,98590.00
2023-03-22T12:14:59.810Z,98588.94
2023-03-22T12:18:06.092Z,98581.84
2023-03-22T12:20:59.504Z,98584.94
2023-03-22T12:23:45.990Z,98581.47
2023-03-22T12:26:35.141Z,98572.34
2023-03-22T12:29:22.366Z,98579.75
2023-03-22T12:32:30.847Z,98581.53
2023-03-22T12:35:29.157Z,98574.69
2023-03-22T12:38:33.900Z,98564.75
2023-03-22T12:41:26.468Z,98568.59
2023-03-22T12:44:58.932Z,98565.34
2023-03-22T12:48:14.760Z,98558.06
2023-03-22T12:51:05.823Z,98557.78
2023-03-22T12:53:57.026Z,98548.25
2023-03-22T12:56:45.967Z,98545.03
2023-03-22T12:59:32.829Z,98541.69
2023-03-22T13:02:27.555Z,98525.28
2023-03-22T13:05:14.291Z,98537.72
2023-03-22T13:08:04.002Z,98539.25
2023-03-22T13:11:03.337Z,98535.69
2023-03-22T13:13:49.879Z,98519.59
2023-03-22T13:16:59.223Z,98529.41
2023-03-22T13:19:53.569Z,98521.06
2023-03-22T13:22:41.585Z,98521.75
2023-03-22T13:25:37.501Z,98522.03
2023-03-22T13:28:26.385Z,98509.13
2023-03-22T13:31:34.025Z,98507.34
2023-03-22T13:34:31.262Z,98503.50
2023-03-22T13:37:49.254Z,98497.13
2023-03-22T13:40:44.581Z,98486.22
2023-03-22T13:43:32.924Z,98486.22
2023-03-22T13:46:22.441Z,98489.53
2023-03-22T13:49:31.278Z,98493.25
2023-03-22T13:52:41.332Z,98485.59
2023-03-22T13:56:03.664Z,98489.44
2023-03-22T13:58:53.231Z,98474.06
2023-03-22T14:01:47.618Z,98475.59
2023-03-22T14:04:43.450Z,98478.63
2023-03-22T14:07:53.141Z,98480.41
2023-03-22T14:11:09.008Z,98474.38
2023-03-22T14:14:28.651Z,98461.34
2023-03-22T14:17:38.919Z,98463.94
2023-03-22T14:20:30.375Z,98459.16
